sensor_id;sensor_type;location;lat;lon;timestamp;pressure;altitude;pressure_sealevel;temperature;humidity
22000;BME280;11164;48.818;2.322;2023-07-31T00:01:51;100598.88;;;22.04;37.83
22000;BME280;11164;48.818;2.322;2023-07-31T00:04:17;100606.84;;;22.00;37.94
22000;BME280;11164;48.818;2.322;2023-07-31T00:06:42;100602.97;;;21.81;38.54
22000;BME280;11164;48.818;2.322;2023-07-31T00:09:07;100604.34;;;21.78;38.58
22000;BME280;11164;48.818;2.322;2023-07-31T00:11:33;100604.06;;;21.69;38.69
22000;BME280;11164;48.818;2.322;2023-07-31T00:13:58;100598.59;;;21.64;38.54
22000;BME280;11164;48.818;2.322;2023-07-31T00:16:23;100605.72;;;21.75;38.46
22000;BME280;11164;48.818;2.322;2023-07-31T00:18:49;100594.22;;;21.94;38.20
22000;BME280;11164;48.818;2.322;2023-07-31T00:21:15;100599.94;;;21.82;38.28
22000;BME280;11164;48.818;2.322;2023-07-31T00:23:40;100597.75;;;21.84;38.24
22000;BME280;11164;48.818;2.322;2023-07-31T00:26:06;100591.72;;;21.87;38.23
22000;BME280;11164;48.818;2.322;2023-07-31T00:28:31;100590.91;;;21.92;38.06
22000;BME280;11164;48.818;2.322;2023-07-31T00:30:56;100585.69;;;21.80;38.33
22000;BME280;11164;48.818;2.322;2023-07-31T00:33:22;100583.75;;;21.91;38.15
22000;BME280;11164;48.818;2.322;2023-07-31T00:35:48;100575.53;;;21.70;38.91
22000;BME280;11164;48.818;2.322;2023-07-31T00:38:13;100561.25;;;21.84;38.70
22000;BME280;11164;48.818;2.322;2023-07-31T00:40:39;100566.75;;;21.84;38.35
22000;BME280;11164;48.818;2.322;2023-07-31T00:43:04;100573.63;;;21.66;38.68
22000;BME280;11164;48.818;2.322;2023-07-31T00:45:30;100568.94;;;21.71;38.69
22000;BME280;11164;48.818;2.322;2023-07-31T00:47:55;100564.53;;;21.91;38.57
22000;BME280;11164;48.818;2.322;2023-07-31T00:50:23;100567.28;;;21.70;38.88
22000;BME280;11164;48.818;2.322;2023-07-31T00:52:49;100571.97;;;21.85;38.67
22000;BME280;11164;48.818;2.322;2023-07-31T00:55:14;100568.94;;;21.71;38.84
22000;BME280;11164;48.818;2.322;2023-07-31T00:57:41;100573.34;;;21.52;39.30
22000;BME280;11164;48.818;2.322;2023-07-31T01:00:07;100570.03;;;21.60;39.14
22000;BME280;11164;48.818;2.322;2023-07-31T01:02:32;100567.81;;;21.57;39.29
22000;BME280;11164;48.818;2.322;2023-07-31T01:04:58;100567.75;;;21.21;39.98
22000;BME280;11164;48.818;2.322;2023-07-31T01:07:49;100561.81;;;21.65;39.13
22000;BME280;11164;48.818;2.322;2023-07-31T01:10:23;100553.56;;;21.60;39.99
22000;BME280;11164;48.818;2.322;2023-07-31T01:12:51;100555.75;;;21.58;39.22
22000;BME280;11164;48.818;2.322;2023-07-31T01:15:17;100550.81;;;21.75;38.68
22000;BME280;11164;48.818;2.322;2023-07-31T01:17:43;100540.13;;;21.69;39.07
22000;BME280;11164;48.818;2.322;2023-07-31T01:20:15;100541.47;;;21.35;39.63
22000;BME280;11164;48.818;2.322;2023-07-31T01:28:29;100515.16;;;21.40;39.59
22000;BME280;11164;48.818;2.322;2023-07-31T01:30:58;100508.31;;;21.47;39.38
22000;BME280;11164;48.818;2.322;2023-07-31T01:33:25;100515.44;;;21.33;39.63
22000;BME280;11164;48.818;2.322;2023-07-31T01:35:51;100516.97;;;20.98;40.29
22000;BME280;11164;48.818;2.322;2023-07-31T01:38:20;100522.22;;;21.20;39.99
22000;BME280;11164;48.818;2.322;2023-07-31T01:40:51;100530.41;;;20.94;40.68
22000;BME280;11164;48.818;2.322;2023-07-31T01:43:16;100522.47;;;21.03;40.21
22000;BME280;11164;48.818;2.322;2023-07-31T01:45:41;100531.56;;;21.14;40.13
22000;BME280;11164;48.818;2.322;2023-07-31T01:48:06;100526.97;;;21.40;39.35
22000;BME280;11164;48.818;2.322;2023-07-31T01:50:32;100527.19;;;21.23;39.67
22000;BME280;11164;48.818;2.322;2023-07-31T01:52:57;100516.38;;;20.80;40.80
22000;BME280;11164;48.818;2.322;2023-07-31T01:55:22;100522.19;;;20.99;40.20
22000;BME280;11164;48.818;2.322;2023-07-31T01:57:48;100520.81;;;20.97;40.02
22000;BME280;11164;48.818;2.322;2023-07-31T02:00:13;100524.97;;;21.15;39.87
22000;BME280;11164;48.818;2.322;2023-07-31T02:02:39;100536.75;;;21.05;40.11
22000;BME280;11164;48.818;2.322;2023-07-31T02:05:04;100526.28;;;20.92;40.28
22000;BME280;11164;48.818;2.322;2023-07-31T02:07:30;100535.84;;;20.84;40.47
22000;BME280;11164;48.818;2.322;2023-07-31T02:09:55;100521.91;;;20.91;40.23
22000;BME280;11164;48.818;2.322;2023-07-31T02:12:21;100517.75;;;20.73;40.41
22000;BME280;11164;48.818;2.322;2023-07-31T02:14:46;100528.25;;;20.96;40.09
22000;BME280;11164;48.818;2.322;2023-07-31T02:17:11;100515.06;;;20.93;40.21
22000;BME280;11164;48.818;2.322;2023-07-31T02:19:37;100518.38;;;21.06;39.92
22000;BME280;11164;48.818;2.322;2023-07-31T02:22:02;100508.50;;;21.05;39.80
22000;BME280;11164;48.818;2.322;2023-07-31T02:24:28;100509.31;;;20.95;40.18
22000;BME280;11164;48.818;2.322;2023-07-31T02:26:53;100499.97;;;20.86;40.23
22000;BME280;11164;48.818;2.322;2023-07-31T02:29:18;100504.88;;;20.84;40.23
22000;BME280;11164;48.818;2.322;2023-07-31T02:31:44;100498.59;;;20.78;40.44
22000;BME280;11164;48.818;2.322;2023-07-31T02:34:09;100502.78;;;21.22;39.17
22000;BME280;11164;48.818;2.322;2023-07-31T02:36:34;100500.00;;;21.06;39.85
22000;BME280;11164;48.818;2.322;2023-07-31T02:39:00;100497.78;;;20.88;39.98
22000;BME280;11164;48.818;2.322;2023-07-31T02:41:25;100477.19;;;20.70;40.01
22000;BME280;11164;48.818;2.322;2023-07-31T02:43:50;100472.28;;;20.87;39.80
22000;BME280;11164;48.818;2.322;2023-07-31T02:46:15;100480.47;;;20.77;40.05
22000;BME280;11164;48.818;2.322;2023-07-31T02:48:41;100479.97;;;20.90;39.67
22000;BME280;11164;48.818;2.322;2023-07-31T02:51:06;100478.09;;;21.16;39.35
22000;BME280;11164;48.818;2.322;2023-07-31T02:53:31;100481.06;;;20.94;39.49
22000;BME280;11164;48.818;2.322;2023-07-31T02:55:57;100480.25;;;20.99;39.54
22000;BME280;11164;48.818;2.322;2023-07-31T02:58:22;100464.31;;;20.80;39.83
22000;BME280;11164;48.818;2.322;2023-07-31T03:00:47;100468.44;;;20.78;39.78
22000;BME280;11164;48.818;2.322;2023-07-31T03:03:13;100460.75;;;20.75;39.78
22000;BME280;11164;48.818;2.322;2023-07-31T03:05:38;100462.69;;;20.74;39.76
22000;BME280;11164;48.818;2.322;2023-07-31T03:08:03;100453.38;;;20.86;39.50
22000;BME280;11164;48.818;2.322;2023-07-31T03:10:29;100456.38;;;20.69;39.55
22000;BME280;11164;48.818;2.322;2023-07-31T03:12:54;100453.94;;;20.83;39.36
22000;BME280;11164;48.818;2.322;2023-07-31T03:15:19;100459.44;;;20.88;39.21
22000;BME280;11164;48.818;2.322;2023-07-31T03:17:45;100469.22;;;20.68;39.74
22000;BME280;11164;48.818;2.322;2023-07-31T03:20:10;100480.72;;;20.70;39.76
22000;BME280;11164;48.818;2.322;2023-07-31T03:22:36;100485.34;;;20.54;40.19
22000;BME280;11164;48.818;2.322;2023-07-31T03:25:02;100466.19;;;20.59;39.91
22000;BME280;11164;48.818;2.322;2023-07-31T03:27:27;100460.25;;;20.88;39.36
22000;BME280;11164;48.818;2.322;2023-07-31T03:29:53;100452.81;;;20.73;39.61
22000;BME280;11164;48.818;2.322;2023-07-31T03:32:19;100463.34;;;20.39;40.37
22000;BME280;11164;48.818;2.322;2023-07-31T03:34:45;100457.38;;;20.52;40.17
22000;BME280;11164;48.818;2.322;2023-07-31T03:37:10;100459.97;;;20.85;39.51
22000;BME280;11164;48.818;2.322;2023-07-31T03:39:35;100457.25;;;20.95;39.21
22000;BME280;11164;48.818;2.322;2023-07-31T03:42:01;100447.84;;;20.70;39.82
22000;BME280;11164;48.818;2.322;2023-07-31T03:44:26;100452.69;;;20.48;40.16
22000;BME280;11164;48.818;2.322;2023-07-31T03:46:51;100459.56;;;20.50;40.26
22000;BME280;11164;48.818;2.322;2023-07-31T03:49:17;100449.66;;;20.44;40.08
22000;BME280;11164;48.818;2.322;2023-07-31T03:51:44;100461.25;;;20.61;39.87
22000;BME280;11164;48.818;2.322;2023-07-31T03:54:09;100438.25;;;20.62;39.66
22000;BME280;11164;48.818;2.322;2023-07-31T03:56:35;100450.91;;;20.79;39.33
22000;BME280;11164;48.818;2.322;2023-07-31T03:59:00;100446.94;;;20.49;39.67
22000;BME280;11164;48.818;2.322;2023-07-31T04:01:25;100444.63;;;20.15;40.47
22000;BME280;11164;48.818;2.322;2023-07-31T04:03:51;100436.53;;;20.41;39.93
22000;BME280;11164;48.818;2.322;2023-07-31T04:06:16;100442.09;;;20.67;39.41
22000;BME280;11164;48.818;2.322;2023-07-31T04:08:44;100435.53;;;20.73;39.26
22000;BME280;11164;48.818;2.322;2023-07-31T04:11:13;100429.06;;;20.26;40.08
22000;BME280;11164;48.818;2.322;2023-07-31T04:13:38;100429.66;;;20.33;39.93
22000;BME280;11164;48.818;2.322;2023-07-31T04:16:04;100438.72;;;20.49;39.54
22000;BME280;11164;48.818;2.322;2023-07-31T04:18:29;100448.34;;;19.94;40.71
22000;BME280;11164;48.818;2.322;2023-07-31T04:20:56;100453.84;;;19.99;40.76
22000;BME280;11164;48.818;2.322;2023-07-31T04:23:23;100437.09;;;19.90;40.56
22000;BME280;11164;48.818;2.322;2023-07-31T04:25:49;100450.56;;;19.97;40.55
22000;BME280;11164;48.818;2.322;2023-07-31T04:28:14;100445.75;;;20.24;40.03
22000;BME280;11164;48.818;2.322;2023-07-31T04:30:39;100449.03;;;20.21;40.01
22000;BME280;11164;48.818;2.322;2023-07-31T04:33:04;100451.78;;;20.21;40.01
22000;BME280;11164;48.818;2.322;2023-07-31T04:35:30;100438.00;;;20.06;40.16
22000;BME280;11164;48.818;2.322;2023-07-31T04:37:55;100446.88;;;20.23;39.84
22000;BME280;11164;48.818;2.322;2023-07-31T04:40:20;100443.44;;;19.91;40.45
22000;BME280;11164;48.818;2.322;2023-07-31T04:42:46;100449.78;;;20.01;40.18
22000;BME280;11164;48.818;2.322;2023-07-31T04:45:12;100445.34;;;19.95;40.22
22000;BME280;11164;48.818;2.322;2023-07-31T04:47:37;100449.06;;;20.32;39.65
22000;BME280;11164;48.818;2.322;2023-07-31T04:50:02;100449.41;;;20.51;39.20
22000;BME280;11164;48.818;2.322;2023-07-31T04:52:28;100450.22;;;20.36;39.58
22000;BME280;11164;48.818;2.322;2023-07-31T04:54:53;100452.69;;;20.48;39.19
22000;BME280;11164;48.818;2.322;2023-07-31T04:57:18;100457.53;;;20.25;39.81
22000;BME280;11164;48.818;2.322;2023-07-31T04:59:44;100453.13;;;20.19;39.85
22000;BME280;11164;48.818;2.322;2023-07-31T05:02:11;100450.19;;;20.31;39.50
22000;BME280;11164;48.818;2.322;2023-07-31T05:04:37;100448.66;;;20.60;39.12
22000;BME280;11164;48.818;2.322;2023-07-31T05:07:02;100457.50;;;20.20;40.12
22000;BME280;11164;48.818;2.322;2023-07-31T05:09:28;100448.94;;;20.06;40.33
22000;BME280;11164;48.818;2.322;2023-07-31T05:11:53;100444.47;;;19.84;40.58
22000;BME280;11164;48.818;2.322;2023-07-31T05:14:18;100443.75;;;19.99;40.36
22000;BME280;11164;48.818;2.322;2023-07-31T05:16:45;100446.59;;;20.30;39.71
22000;BME280;11164;48.818;2.322;2023-07-31T05:19:10;100438.38;;;20.25;39.83
22000;BME280;11164;48.818;2.322;2023-07-31T05:21:36;100432.19;;;19.92;40.56
22000;BME280;11164;48.818;2.322;2023-07-31T05:24:01;100445.66;;;20.04;40.34
22000;BME280;11164;48.818;2.322;2023-07-31T05:26:26;100443.47;;;20.06;40.54
22000;BME280;11164;48.818;2.322;2023-07-31T05:28:52;100438.66;;;20.23;40.15
22000;BME280;11164;48.818;2.322;2023-07-31T05:31:17;100441.09;;;20.25;39.98
22000;BME280;11164;48.818;2.322;2023-07-31T05:33:42;100439.63;;;19.97;40.94
22000;BME280;11164;48.818;2.322;2023-07-31T05:36:08;100433.66;;;20.10;40.71
22000;BME280;11164;48.818;2.322;2023-07-31T05:38:33;100439.13;;;20.10;40.70
22000;BME280;11164;48.818;2.322;2023-07-31T05:40:59;100429.22;;;19.99;40.81
22000;BME280;11164;48.818;2.322;2023-07-31T05:43:24;100427.75;;;20.44;40.21
22000;BME280;11164;48.818;2.322;2023-07-31T05:45:51;100438.59;;;20.08;41.07
22000;BME280;11164;48.818;2.322;2023-07-31T05:48:16;100416.44;;;20.20;40.68
22000;BME280;11164;48.818;2.322;2023-07-31T05:50:43;100417.66;;;20.44;40.12
22000;BME280;11164;48.818;2.322;2023-07-31T05:53:08;100415.75;;;20.50;40.26
22000;BME280;11164;48.818;2.322;2023-07-31T05:55:34;100416.34;;;20.57;40.26
22000;BME280;11164;48.818;2.322;2023-07-31T05:57:59;100410.06;;;20.62;40.18
22000;BME280;11164;48.818;2.322;2023-07-31T06:00:24;100392.59;;;20.05;41.40
22000;BME280;11164;48.818;2.322;2023-07-31T06:02:50;100400.53;;;20.06;41.59
22000;BME280;11164;48.818;2.322;2023-07-31T06:05:15;100396.44;;;20.14;41.45
22000;BME280;11164;48.818;2.322;2023-07-31T06:07:41;100402.50;;;20.27;41.36
22000;BME280;11164;48.818;2.322;2023-07-31T06:10:07;100395.19;;;20.48;41.00
22000;BME280;11164;48.818;2.322;2023-07-31T06:12:33;100385.38;;;20.57;40.93
22000;BME280;11164;48.818;2.322;2023-07-31T06:14:59;100386.22;;;20.57;41.14
22000;BME280;11164;48.818;2.322;2023-07-31T06:17:24;100369.81;;;20.78;40.39
22000;BME280;11164;48.818;2.322;2023-07-31T06:19:51;100385.72;;;20.86;40.78
22000;BME280;11164;48.818;2.322;2023-07-31T06:22:17;100380.78;;;20.98;40.73
22000;BME280;11164;48.818;2.322;2023-07-31T06:24:42;100376.66;;;20.96;40.76
22000;BME280;11164;48.818;2.322;2023-07-31T06:27:07;100364.56;;;20.66;41.32
22000;BME280;11164;48.818;2.322;2023-07-31T06:29:33;100369.78;;;20.73;41.15
22000;BME280;11164;48.818;2.322;2023-07-31T06:31:58;100365.09;;;20.58;41.62
22000;BME280;11164;48.818;2.322;2023-07-31T06:34:24;100380.44;;;20.54;41.74
22000;BME280;11164;48.818;2.322;2023-07-31T06:36:49;100385.63;;;20.50;41.53
22000;BME280;11164;48.818;2.322;2023-07-31T06:39:14;100380.66;;;20.42;42.15
22000;BME280;11164;48.818;2.322;2023-07-31T06:41:40;100390.56;;;20.53;41.76
22000;BME280;11164;48.818;2.322;2023-07-31T06:44:05;100385.41;;;20.62;41.71
22000;BME280;11164;48.818;2.322;2023-07-31T06:46:30;100391.44;;;20.69;41.57
22000;BME280;11164;48.818;2.322;2023-07-31T06:48:56;100393.34;;;20.58;41.72
22000;BME280;11164;48.818;2.322;2023-07-31T06:51:21;100407.25;;;20.52;42.09
22000;BME280;11164;48.818;2.322;2023-07-31T06:53:46;100386.13;;;20.37;42.13
22000;BME280;11164;48.818;2.322;2023-07-31T06:56:12;100390.78;;;20.41;42.14
22000;BME280;11164;48.818;2.322;2023-07-31T06:58:38;100394.06;;;20.38;42.50
22000;BME280;11164;48.818;2.322;2023-07-31T07:01:03;100403.94;;;20.39;42.58
22000;BME280;11164;48.818;2.322;2023-07-31T07:03:29;100401.22;;;20.50;42.49
22000;BME280;11164;48.818;2.322;2023-07-31T07:05:54;100404.44;;;20.26;43.01
22000;BME280;11164;48.818;2.322;2023-07-31T07:08:20;100400.06;;;20.30;43.14
22000;BME280;11164;48.818;2.322;2023-07-31T07:10:46;100385.41;;;20.62;42.44
22000;BME280;11164;48.818;2.322;2023-07-31T07:13:11;100377.41;;;20.50;42.80
22000;BME280;11164;48.818;2.322;2023-07-31T07:15:37;100382.09;;;20.70;42.48
22000;BME280;11164;48.818;2.322;2023-07-31T07:18:03;100364.84;;;20.59;42.58
22000;BME280;11164;48.818;2.322;2023-07-31T07:20:28;100380.75;;;20.68;42.57
22000;BME280;11164;48.818;2.322;2023-07-31T07:22:54;100372.66;;;20.25;43.65
22000;BME280;11164;48.818;2.322;2023-07-31T07:25:19;100363.50;;;20.67;42.91
22000;BME280;11164;48.818;2.322;2023-07-31T07:27:44;100364.34;;;20.98;42.46
22000;BME280;11164;48.818;2.322;2023-07-31T07:30:10;100382.34;;;20.48;43.66
22000;BME280;11164;48.818;2.322;2023-07-31T07:32:35;100373.06;;;20.65;43.33
22000;BME280;11164;48.818;2.322;2023-07-31T07:35:00;100348.41;;;21.21;42.31
22000;BME280;11164;48.818;2.322;2023-07-31T07:37:26;100363.75;;;21.43;41.83
22000;BME280;11164;48.818;2.322;2023-07-31T07:39:51;100363.22;;;21.46;41.94
22000;BME280;11164;48.818;2.322;2023-07-31T07:42:18;100369.84;;;21.29;42.41
22000;BME280;11164;48.818;2.322;2023-07-31T07:44:43;100368.91;;;20.52;44.02
22000;BME280;11164;48.818;2.322;2023-07-31T07:47:08;100362.94;;;21.11;42.88
22000;BME280;11164;48.818;2.322;2023-07-31T07:49:34;100352.19;;;21.61;41.89
22000;BME280;11164;48.818;2.322;2023-07-31T07:52:00;100375.94;;;22.07;41.05
22000;BME280;11164;48.818;2.322;2023-07-31T07:54:26;100372.44;;;21.81;41.92
22000;BME280;11164;48.818;2.322;2023-07-31T07:56:51;100369.81;;;21.24;42.78
22000;BME280;11164;48.818;2.322;2023-07-31T07:59:16;100384.59;;;21.18;42.83
22000;BME280;11164;48.818;2.322;2023-07-31T08:01:42;100375.69;;;21.88;41.82
22000;BME280;11164;48.818;2.322;2023-07-31T08:04:08;100377.59;;;22.03;41.44
22000;BME280;11164;48.818;2.322;2023-07-31T08:06:33;100373.81;;;21.83;41.79
22000;BME280;11164;48.818;2.322;2023-07-31T08:08:59;100381.84;;;21.64;42.02
22000;BME280;11164;48.818;2.322;2023-07-31T08:11:24;100370.91;;;21.28;42.66
22000;BME280;11164;48.818;2.322;2023-07-31T08:13:50;100365.59;;;21.83;41.42
22000;BME280;11164;48.818;2.322;2023-07-31T08:16:15;100366.50;;;21.22;42.38
22000;BME280;11164;48.818;2.322;2023-07-31T08:18:41;100372.56;;;20.93;42.90
22000;BME280;11164;48.818;2.322;2023-07-31T08:21:08;100369.16;;;21.79;41.28
22000;BME280;11164;48.818;2.322;2023-07-31T08:23:33;100368.47;;;22.18;40.43
22000;BME280;11164;48.818;2.322;2023-07-31T08:25:58;100361.56;;;22.25;40.63
22000;BME280;11164;48.818;2.322;2023-07-31T08:28:25;100361.25;;;22.77;40.00
22000;BME280;11164;48.818;2.322;2023-07-31T08:30:50;100348.25;;;22.48;40.16
22000;BME280;11164;48.818;2.322;2023-07-31T08:33:16;100353.13;;;22.96;39.49
22000;BME280;11164;48.818;2.322;2023-07-31T08:35:41;100344.03;;;22.66;39.89
22000;BME280;11164;48.818;2.322;2023-07-31T08:38:07;100349.00;;;22.59;40.23
22000;BME280;11164;48.818;2.322;2023-07-31T08:40:36;100348.63;;;21.66;41.27
22000;BME280;11164;48.818;2.322;2023-07-31T08:43:01;100338.25;;;21.47;41.98
22000;BME280;11164;48.818;2.322;2023-07-31T08:45:28;100332.53;;;21.28;42.11
22000;BME280;11164;48.818;2.322;2023-07-31T08:47:55;100335.28;;;21.28;41.84
22000;BME280;11164;48.818;2.322;2023-07-31T08:50:21;100328.94;;;21.23;41.52
22000;BME280;11164;48.818;2.322;2023-07-31T08:52:48;100342.88;;;21.57;41.32
22000;BME280;11164;48.818;2.322;2023-07-31T08:55:14;100340.56;;;21.95;40.68
22000;BME280;11164;48.818;2.322;2023-07-31T08:57:40;100336.47;;;21.87;40.82
22000;BME280;11164;48.818;2.322;2023-07-31T09:00:08;100319.50;;;21.75;40.74
22000;BME280;11164;48.818;2.322;2023-07-31T09:02:50;100319.44;;;21.90;40.96
22000;BME280;11164;48.818;2.322;2023-07-31T09:05:17;100333.25;;;21.70;41.11
22000;BME280;11164;48.818;2.322;2023-07-31T09:07:45;100342.69;;;21.33;42.11
22000;BME280;11164;48.818;2.322;2023-07-31T09:10:12;100333.06;;;21.35;41.93
22000;BME280;11164;48.818;2.322;2023-07-31T09:12:38;100349.22;;;21.47;41.71
22000;BME280;11164;48.818;2.322;2023-07-31T09:15:05;100348.69;;;21.40;41.97
22000;BME280;11164;48.818;2.322;2023-07-31T09:17:36;100340.72;;;21.23;42.63
22000;BME280;11164;48.818;2.322;2023-07-31T09:20:18;100335.00;;;21.09;43.27
22000;BME280;11164;48.818;2.322;2023-07-31T09:22:44;100334.34;;;21.59;41.89
22000;BME280;11164;48.818;2.322;2023-07-31T09:25:21;100331.00;;;21.82;41.39
22000;BME280;11164;48.818;2.322;2023-07-31T09:27:54;100340.78;;;22.09;41.18
22000;BME280;11164;48.818;2.322;2023-07-31T09:30:20;100333.25;;;21.65;41.97
22000;BME280;11164;48.818;2.322;2023-07-31T09:32:48;100336.75;;;21.86;41.37
22000;BME280;11164;48.818;2.322;2023-07-31T09:35:27;100342.22;;;21.96;41.18
22000;BME280;11164;48.818;2.322;2023-07-31T09:37:57;100343.72;;;21.52;42.30
22000;BME280;11164;48.818;2.322;2023-07-31T09:40:27;100348.16;;;21.28;43.38
22000;BME280;11164;48.818;2.322;2023-07-31T09:42:56;100345.16;;;21.09;43.64
22000;BME280;11164;48.818;2.322;2023-07-31T09:45:22;100346.50;;;21.27;42.85
22000;BME280;11164;48.818;2.322;2023-07-31T09:47:48;100324.72;;;21.71;41.74
22000;BME280;11164;48.818;2.322;2023-07-31T09:50:14;100327.41;;;21.87;41.97
22000;BME280;11164;48.818;2.322;2023-07-31T09:52:41;100326.28;;;21.93;42.17
22000;BME280;11164;48.818;2.322;2023-07-31T09:55:07;100329.41;;;22.31;41.53
22000;BME280;11164;48.818;2.322;2023-07-31T09:57:33;100330.84;;;22.58;41.17
22000;BME280;11164;48.818;2.322;2023-07-31T09:59:59;100334.53;;;22.43;41.41
22000;BME280;11164;48.818;2.322;2023-07-31T10:02:26;100344.78;;;22.32;41.99
22000;BME280;11164;48.818;2.322;2023-07-31T10:04:57;100334.59;;;21.72;42.84
22000;BME280;11164;48.818;2.322;2023-07-31T10:07:25;100310.47;;;21.69;42.58
22000;BME280;11164;48.818;2.322;2023-07-31T10:09:53;100314.59;;;21.62;42.70
22000;BME280;11164;48.818;2.322;2023-07-31T10:12:22;100306.13;;;21.53;42.87
22000;BME280;11164;48.818;2.322;2023-07-31T10:14:51;100304.75;;;21.61;42.45
22000;BME280;11164;48.818;2.322;2023-07-31T10:17:19;100318.53;;;21.40;42.84
22000;BME280;11164;48.818;2.322;2023-07-31T10:19:46;100315.72;;;21.61;42.38
22000;BME280;11164;48.818;2.322;2023-07-31T10:22:13;100318.56;;;20.89;44.31
22000;BME280;11164;48.818;2.322;2023-07-31T10:24:39;100313.63;;;20.86;43.28
22000;BME280;11164;48.818;2.322;2023-07-31T10:27:05;100304.31;;;20.92;42.91
22000;BME280;11164;48.818;2.322;2023-07-31T10:29:32;100287.06;;;20.91;43.05
22000;BME280;11164;48.818;2.322;2023-07-31T10:31:58;100288.59;;;21.49;42.37
22000;BME280;11164;48.818;2.322;2023-07-31T10:34:24;100297.00;;;21.78;42.07
22000;BME280;11164;48.818;2.322;2023-07-31T10:36:49;100274.25;;;21.67;42.64
22000;BME280;11164;48.818;2.322;2023-07-31T10:39:35;100283.06;;;21.59;46.33
22000;BME280;11164;48.818;2.322;2023-07-31T10:42:13;100278.03;;;21.82;43.82
22000;BME280;11164;48.818;2.322;2023-07-31T10:44:44;100284.53;;;22.06;42.74
22000;BME280;11164;48.818;2.322;2023-07-31T10:47:10;100292.59;;;21.77;43.33
22000;BME280;11164;48.818;2.322;2023-07-31T10:49:39;100279.19;;;21.70;43.43
22000;BME280;11164;48.818;2.322;2023-07-31T10:52:04;100279.53;;;21.43;44.20
22000;BME280;11164;48.818;2.322;2023-07-31T10:54:30;100259.53;;;21.43;44.13
22000;BME280;11164;48.818;2.322;2023-07-31T10:56:56;100280.81;;;21.71;43.45
22000;BME280;11164;48.818;2.322;2023-07-31T10:59:26;100289.09;;;21.66;44.11
22000;BME280;11164;48.818;2.322;2023-07-31T11:01:54;100285.25;;;21.57;43.97
22000;BME280;11164;48.818;2.322;2023-07-31T11:04:24;100287.41;;;21.70;43.95
22000;BME280;11164;48.818;2.322;2023-07-31T11:07:00;100289.19;;;21.35;44.97
22000;BME280;11164;48.818;2.322;2023-07-31T11:09:31;100286.97;;;21.22;44.62
22000;BME280;11164;48.818;2.322;2023-07-31T11:11:57;100280.41;;;21.18;44.50
22000;BME280;11164;48.818;2.322;2023-07-31T11:14:23;100273.25;;;21.37;43.93
22000;BME280;11164;48.818;2.322;2023-07-31T11:16:51;100267.75;;;21.48;44.09
22000;BME280;11164;48.818;2.322;2023-07-31T11:19:24;100254.88;;;21.43;44.69
22000;BME280;11164;48.818;2.322;2023-07-31T11:21:51;100250.69;;;21.61;43.98
22000;BME280;11164;48.818;2.322;2023-07-31T11:24:17;100253.84;;;21.94;43.57
22000;BME280;11164;48.818;2.322;2023-07-31T11:26:52;100261.78;;;22.35;43.83
22000;BME280;11164;48.818;2.322;2023-07-31T11:29:18;100262.81;;;22.49;42.89
22000;BME280;11164;48.818;2.322;2023-07-31T11:31:45;100267.22;;;22.45;43.29
22000;BME280;11164;48.818;2.322;2023-07-31T11:34:11;100256.09;;;22.61;43.25
22000;BME280;11164;48.818;2.322;2023-07-31T11:36:37;100261.25;;;23.02;42.93
22000;BME280;11164;48.818;2.322;2023-07-31T11:39:09;100266.69;;;23.36;43.10
22000;BME280;11164;48.818;2.322;2023-07-31T11:41:35;100267.38;;;23.47;42.61
22000;BME280;11164;48.818;2.322;2023-07-31T11:44:00;100268.13;;;23.53;42.50
22000;BME280;11164;48.818;2.322;2023-07-31T11:46:26;100274.28;;;23.45;42.78
22000;BME280;11164;48.818;2.322;2023-07-31T11:48:52;100248.19;;;22.89;43.53
22000;BME280;11164;48.818;2.322;2023-07-31T11:51:20;100246.94;;;22.76;44.31
22000;BME280;11164;48.818;2.322;2023-07-31T11:53:51;100260.88;;;22.84;43.89
22000;BME280;11164;48.818;2.322;2023-07-31T11:56:18;100244.44;;;22.79;43.83
22000;BME280;11164;48.818;2.322;2023-07-31T11:58:46;100251.81;;;22.84;43.81
22000;BME280;11164;48.818;2.322;2023-07-31T12:01:14;100236.59;;;22.92;43.40
22000;BME280;11164;48.818;2.322;2023-07-31T12:03:40;100243.69;;;23.22;42.98
22000;BME280;11164;48.818;2.322;2023-07-31T12:06:08;100242.81;;;23.02;43.49
22000;BME280;11164;48.818;2.322;2023-07-31T12:08:33;100236.53;;;22.73;43.66
22000;BME280;11164;48.818;2.322;2023-07-31T12:11:03;100227.38;;;22.48;44.28
22000;BME280;11164;48.818;2.322;2023-07-31T12:13:31;100233.13;;;22.52;44.26
22000;BME280;11164;48.818;2.322;2023-07-31T12:15:58;100224.63;;;22.14;44.80
22000;BME280;11164;48.818;2.322;2023-07-31T12:18:26;100225.75;;;22.42;44.26
22000;BME280;11164;48.818;2.322;2023-07-31T12:20:56;100225.25;;;22.40;43.83
22000;BME280;11164;48.818;2.322;2023-07-31T12:23:23;100224.28;;;22.55;43.38
22000;BME280;11164;48.818;2.322;2023-07-31T12:26:17;100228.66;;;22.56;43.50
22000;BME280;11164;48.818;2.322;2023-07-31T12:31:12;100214.28;;;22.35;44.00
22000;BME280;11164;48.818;2.322;2023-07-31T12:33:38;100216.38;;;22.48;43.43
22000;BME280;11164;48.818;2.322;2023-07-31T12:36:08;100184.03;;;22.05;44.10
22000;BME280;11164;48.818;2.322;2023-07-31T12:38:34;100185.50;;;21.87;44.59
22000;BME280;11164;48.818;2.322;2023-07-31T12:40:59;100180.06;;;22.22;43.69
22000;BME280;11164;48.818;2.322;2023-07-31T12:43:24;100183.88;;;22.26;43.68
22000;BME280;11164;48.818;2.322;2023-07-31T12:45:50;100186.34;;;22.57;43.54
22000;BME280;11164;48.818;2.322;2023-07-31T12:48:15;100178.56;;;22.69;43.24
22000;BME280;11164;48.818;2.322;2023-07-31T12:50:41;100177.72;;;22.98;42.58
22000;BME280;11164;48.818;2.322;2023-07-31T12:53:06;100161.97;;;23.03;42.62
22000;BME280;11164;48.818;2.322;2023-07-31T12:55:32;100151.59;;;23.19;43.00